createdAt,value
2022-11-17T00:02:07.028Z,98713.97
2022-11-17T00:04:34.664Z,98708.00
2022-11-17T00:07:02.410Z,98713.66
2022-11-17T00:09:30.093Z,98697.81
2022-11-17T00:12:18.058Z,98694.19
2022-11-17T00:14:49.882Z,98682.94
2022-11-17T00:17:18.870Z,98677.09
2022-11-17T00:20:04.200Z,98682.44
2022-11-17T00:22:32.957Z,98669.66
2022-11-17T00:25:00.670Z,98651.19
2022-11-17T00:27:28.406Z,98654.19
2022-11-17T00:29:56.916Z,98668.28
2022-11-17T00:32:43.209Z,98655.53
2022-11-17T00:35:10.846Z,98636.09
2022-11-17T00:38:00.632Z,98635.91
2022-11-17T00:40:28.442Z,98627.25
2022-11-17T00:42:56.062Z,98628.34
2022-11-17T00:45:23.699Z,98625.16
2022-11-17T00:47:52.708Z,98610.13
2022-11-17T00:50:20.345Z,98611.66
2022-11-17T00:52:47.960Z,98620.59
2022-11-17T00:55:15.701Z,98600.13
2022-11-17T00:57:43.396Z,98598.97
2022-11-17T01:00:11.903Z,98609.44
2022-11-17T01:02:39.551Z,98602.59
2022-11-17T01:05:09.319Z,98598.19
2022-11-17T01:07:37.026Z,98593.59
2022-11-17T01:10:05.085Z,98592.03
2022-11-17T01:12:32.748Z,98579.31
2022-11-17T01:15:00.388Z,98576.34
2022-11-17T01:17:28.036Z,98576.25
2022-11-17T01:19:55.732Z,98577.84
2022-11-17T01:22:24.763Z,98569.38
2022-11-17T01:24:52.423Z,98559.16
2022-11-17T01:27:20.083Z,98553.19
2022-11-17T01:29:47.708Z,98561.03
2022-11-17T01:32:15.360Z,98543.75
2022-11-17T01:34:43.003Z,98543.44
2022-11-17T01:37:22.487Z,98537.69
2022-11-17T01:39:51.744Z,98555.31
2022-11-17T01:42:21.116Z,98533.13
2022-11-17T01:44:55.575Z,98527.59
2022-11-17T01:47:25.317Z,98521.03
2022-11-17T01:49:56.215Z,98509.13
2022-11-17T01:52:24.763Z,98501.56
2022-11-17T01:54:55.147Z,98505.41
2022-11-17T01:57:27.528Z,98486.84
2022-11-17T01:59:58.443Z,98482.84
2022-11-17T02:02:26.195Z,98470.25
2022-11-17T02:04:58.639Z,98464.00
2022-11-17T02:07:27.664Z,98463.38
2022-11-17T02:10:00.178Z,98451.91
2022-11-17T02:12:28.648Z,98441.72
2022-11-17T02:14:56.363Z,98443.78
2022-11-17T02:17:25.074Z,98443.78
2022-11-17T02:19:57.666Z,98433.84
2022-11-17T02:22:39.155Z,98439.56
2022-11-17T02:25:27.013Z,98433.13
2022-11-17T02:28:05.212Z,98429.72
2022-11-17T02:30:36.293Z,98424.03
2022-11-17T02:33:06.321Z,98435.34
2022-11-17T02:35:40.220Z,98426.47
2022-11-17T02:38:17.129Z,98423.78
2022-11-17T02:40:47.723Z,98408.06
2022-11-17T02:43:36.808Z,98407.56
2022-11-17T02:46:08.264Z,98393.78
2022-11-17T02:48:38.605Z,98372.34
2022-11-17T02:51:09.872Z,98388.28
2022-11-17T02:53:38.576Z,98396.63
2022-11-17T02:56:06.778Z,98391.81
2022-11-17T02:58:35.815Z,98383.78
2022-11-17T03:01:18.108Z,98395.19
2022-11-17T03:03:57.431Z,98372.09
2022-11-17T03:06:30.709Z,98374.50
2022-11-17T03:09:03.932Z,98366.88
2022-11-17T03:11:41.695Z,98380.41
2022-11-17T03:14:16.519Z,98373.22
2022-11-17T03:16:52.557Z,98377.09
2022-11-17T03:19:23.831Z,98373.06
2022-11-17T03:21:56.720Z,98376.22
2022-11-17T03:24:27.762Z,98370.47
2022-11-17T03:26:59.367Z,98351.84
2022-11-17T03:29:30.472Z,98373.56
2022-11-17T03:32:00.704Z,98348.16
2022-11-17T03:34:32.630Z,98343.03
2022-11-17T03:37:03.401Z,98342.22
2022-11-17T03:39:32.839Z,98333.22
2022-11-17T03:42:03.264Z,98328.69
2022-11-17T03:44:34.785Z,98320.97
2022-11-17T03:47:04.091Z,98321.72
2022-11-17T03:49:39.156Z,98335.72
2022-11-17T03:52:07.064Z,98321.75
2022-11-17T03:54:35.105Z,98320.78
2022-11-17T03:57:06.671Z,98328.72
2022-11-17T03:59:39.303Z,98316.47
2022-11-17T04:02:07.038Z,98312.84
2022-11-17T04:04:48.584Z,98316.78
2022-11-17T04:07:16.351Z,98316.88
2022-11-17T04:09:44.047Z,98324.28
2022-11-17T04:12:29.395Z,98304.44
2022-11-17T04:15:15.948Z,98322.31
2022-11-17T04:17:43.655Z,98314.69
2022-11-17T04:20:11.898Z,98314.28
2022-11-17T04:22:39.524Z,98308.78
2022-11-17T04:25:07.665Z,98304.84
2022-11-17T04:28:01.381Z,98303.53
2022-11-17T04:30:30.372Z,98311.28
2022-11-17T04:32:58.087Z,98291.00
2022-11-17T04:35:25.714Z,98299.03
2022-11-17T04:37:53.380Z,98282.72
2022-11-17T04:40:21.064Z,98280.78
2022-11-17T04:42:47.719Z,98267.75
2022-11-17T04:45:15.379Z,98278.25
2022-11-17T04:47:44.388Z,98277.00
2022-11-17T04:50:12.039Z,98260.22
2022-11-17T04:52:39.707Z,98266.38
2022-11-17T04:55:08.165Z,98266.94
2022-11-17T04:57:35.802Z,98259.19
2022-11-17T05:00:03.621Z,98255.59
2022-11-17T05:02:31.291Z,98257.25
2022-11-17T05:05:00.314Z,98250.31
2022-11-17T05:07:28.523Z,98258.28
2022-11-17T05:09:56.188Z,98262.97
2022-11-17T05:12:41.252Z,98250.53
2022-11-17T05:15:09.892Z,98240.28
2022-11-17T05:17:36.539Z,98234.44
2022-11-17T05:20:06.864Z,98240.28
2022-11-17T05:22:51.955Z,98239.66
2022-11-17T05:25:19.713Z,98216.50
2022-11-17T05:27:47.381Z,98221.25
2022-11-17T05:30:15.947Z,98226.50
2022-11-17T05:32:43.578Z,98230.09
2022-11-17T05:35:12.577Z,98211.66
2022-11-17T05:37:40.232Z,98209.03
2022-11-17T05:40:09.437Z,98224.56
2022-11-17T05:42:37.067Z,98220.84
2022-11-17T05:45:05.135Z,98213.22
2022-11-17T05:47:32.795Z,98207.09
2022-11-17T05:50:00.418Z,98213.78
2022-11-17T05:52:29.422Z,98190.50
2022-11-17T05:54:57.060Z,98212.19
2022-11-17T05:57:28.203Z,98200.19
2022-11-17T05:59:59.518Z,98194.22
2022-11-17T06:02:29.923Z,98193.44
2022-11-17T06:04:57.585Z,98191.50
2022-11-17T06:07:25.274Z,98181.13
2022-11-17T06:09:54.564Z,98187.91
2022-11-17T06:12:22.267Z,98186.38
2022-11-17T06:14:49.931Z,98190.53
2022-11-17T06:17:22.427Z,98179.19
2022-11-17T06:19:55.274Z,98174.72
2022-11-17T06:22:22.969Z,98177.25
2022-11-17T06:24:50.676Z,98167.56
2022-11-17T06:27:19.761Z,98185.13
2022-11-17T06:29:47.879Z,98171.03
2022-11-17T06:32:16.007Z,98174.19
2022-11-17T06:34:44.259Z,98176.56
2022-11-17T06:37:12.324Z,98162.03
2022-11-17T06:39:39.992Z,98165.34
2022-11-17T06:42:07.657Z,98160.63
2022-11-17T06:44:36.647Z,98164.66
2022-11-17T06:47:04.336Z,98144.44
2022-11-17T06:49:31.997Z,98158.69
2022-11-17T06:51:59.642Z,98164.81
2022-11-17T06:54:27.368Z,98158.00
2022-11-17T06:56:55.409Z,98157.84
2022-11-17T06:59:23.172Z,98147.06
2022-11-17T07:01:52.304Z,98168.09
2022-11-17T07:04:20.076Z,98166.44
2022-11-17T07:06:47.821Z,98161.47
2022-11-17T07:09:15.526Z,98157.47
2022-11-17T07:11:43.364Z,98161.75
2022-11-17T07:14:11.232Z,98161.34
2022-11-17T07:16:38.961Z,98160.63
2022-11-17T07:19:09.743Z,98151.78
2022-11-17T07:21:37.570Z,98156.75
2022-11-17T07:24:05.615Z,98146.78
2022-11-17T07:26:33.414Z,98145.28
2022-11-17T07:29:01.252Z,98135.63
2022-11-17T07:31:29.022Z,98150.13
2022-11-17T07:33:57.067Z,98145.84
2022-11-17T07:36:26.175Z,98148.03
2022-11-17T07:38:53.894Z,98136.81
2022-11-17T07:41:21.691Z,98148.47
2022-11-17T07:43:49.618Z,98158.69
2022-11-17T07:46:17.436Z,98156.63
2022-11-17T07:48:46.034Z,98147.63
2022-11-17T07:51:14.145Z,98144.03
2022-11-17T07:53:43.491Z,98145.97
2022-11-17T07:56:12.386Z,98151.78
2022-11-17T07:58:40.751Z,98153.16
2022-11-17T08:01:09.082Z,98137.13
2022-11-17T08:03:37.169Z,98149.28
2022-11-17T08:06:05.871Z,98170.88
2022-11-17T08:08:34.127Z,98160.50
2022-11-17T08:11:05.204Z,98169.22
2022-11-17T08:13:32.989Z,98151.53
2022-11-17T08:16:00.929Z,98166.69
2022-11-17T08:18:29.223Z,98182.22
2022-11-17T08:21:03.341Z,98176.41
2022-11-17T08:23:31.135Z,98185.81
2022-11-17T08:25:58.971Z,98187.78
2022-11-17T08:28:28.348Z,98193.00
2022-11-17T08:30:56.075Z,98186.91
2022-11-17T08:33:23.864Z,98182.38
2022-11-17T08:35:51.550Z,98179.88
2022-11-17T08:38:19.238Z,98185.81
2022-11-17T08:40:47.715Z,98185.41
2022-11-17T08:43:15.451Z,98175.00
2022-11-17T08:45:44.524Z,98183.47
2022-11-17T08:48:12.262Z,98183.34
2022-11-17T08:50:39.960Z,98185.81
2022-11-17T08:53:07.688Z,98173.63
2022-11-17T08:55:40.902Z,98179.03
2022-11-17T08:58:09.205Z,98182.78
2022-11-17T09:00:37.142Z,98187.22
2022-11-17T09:03:08.433Z,98188.31
2022-11-17T09:05:38.086Z,98184.16
2022-11-17T09:08:30.218Z,98200.78
2022-11-17T09:10:54.083Z,98199.66
2022-11-17T09:13:21.795Z,98199.09
2022-11-17T09:15:49.495Z,98194.00
2022-11-17T09:18:18.630Z,98200.09
2022-11-17T09:20:46.526Z,98204.06
2022-11-17T09:23:14.237Z,98201.47
2022-11-17T09:25:41.952Z,98212.66
2022-11-17T09:28:09.635Z,98213.50
2022-11-17T09:30:37.977Z,98222.84
2022-11-17T09:33:05.728Z,98209.97
2022-11-17T09:35:34.759Z,98222.84
2022-11-17T09:38:02.534Z,98222.38
2022-11-17T09:40:36.285Z,98223.63
2022-11-17T09:43:07.789Z,98219.69
2022-11-17T09:45:38.371Z,98224.94
2022-11-17T09:48:39.352Z,98206.84
2022-11-17T09:51:01.389Z,98220.84
2022-11-17T09:53:30.870Z,98217.56
2022-11-17T09:55:59.626Z,98218.75
2022-11-17T09:58:32.832Z,98236.28
2022-11-17T10:01:02.225Z,98234.81
2022-11-17T10:03:32.993Z,98228.16
2022-11-17T10:06:05.319Z,98228.47
2022-11-17T10:08:39.029Z,98214.81
2022-11-17T10:11:25.615Z,98241.03
2022-11-17T10:13:53.362Z,98235.47
2022-11-17T10:16:21.063Z,98249.59
2022-11-17T10:18:48.931Z,98239.47
2022-11-17T10:21:17.982Z,98247.41
2022-11-17T10:23:47.876Z,98248.00
2022-11-17T10:26:16.758Z,98240.75
2022-11-17T10:28:44.900Z,98247.25
2022-11-17T10:31:14.411Z,98254.81
2022-11-17T10:33:44.651Z,98254.31
2022-11-17T10:36:20.481Z,98254.00
2022-11-17T10:38:49.722Z,98257.00
2022-11-17T10:41:19.123Z,98246.53
2022-11-17T10:43:58.457Z,98251.22
2022-11-17T10:46:26.175Z,98255.13
2022-11-17T10:49:00.610Z,98256.34
2022-11-17T10:51:32.439Z,98258.44
2022-11-17T10:54:06.312Z,98265.16
2022-11-17T10:56:36.322Z,98245.88
2022-11-17T10:59:13.841Z,98250.00
2022-11-17T11:01:42.990Z,98263.25
2022-11-17T11:04:29.534Z,98263.50
2022-11-17T11:07:11.178Z,98265.91
2022-11-17T11:09:43.290Z,98271.78
2022-11-17T11:12:14.549Z,98261.59
2022-11-17T11:14:45.358Z,98267.03
2022-11-17T11:17:14.091Z,98259.94
2022-11-17T11:19:42.956Z,98263.88
2022-11-17T11:22:29.004Z,98256.63
2022-11-17T11:25:04.750Z,98261.53
2022-11-17T11:27:49.750Z,98273.00
2022-11-17T11:30:18.591Z,98280.91
2022-11-17T11:32:55.661Z,98276.53
2022-11-17T11:35:34.842Z,98282.34
2022-11-17T11:38:12.321Z,98296.69
2022-11-17T11:40:42.322Z,98292.84
2022-11-17T11:43:22.388Z,98280.47
2022-11-17T11:45:56.555Z,98292.59
2022-11-17T11:48:26.326Z,98296.22
2022-11-17T11:50:56.637Z,98300.50
2022-11-17T11:53:33.118Z,98302.19
2022-11-17T11:56:15.308Z,98302.94
2022-11-17T11:58:47.949Z,98299.50
2022-11-17T12:01:17.762Z,98308.97
2022-11-17T12:03:51.329Z,98309.75
2022-11-17T12:06:43.007Z,98314.25
2022-11-17T12:09:46.247Z,98303.75
2022-11-17T12:12:17.294Z,98306.31
2022-11-17T12:15:15.050Z,98311.00
2022-11-17T12:17:59.688Z,98313.34
2022-11-17T12:20:50.946Z,98316.34
2022-11-17T12:23:23.853Z,98321.00
2022-11-17T12:25:54.288Z,98307.00
2022-11-17T12:28:32.909Z,98306.97
2022-11-17T12:31:06.639Z,98306.06
2022-11-17T12:34:11.820Z,98311.22
2022-11-17T12:36:39.786Z,98309.44
2022-11-17T12:39:09.900Z,98318.19
2022-11-17T12:42:06.454Z,98317.06
2022-11-17T12:45:09.132Z,98311.81
2022-11-17T12:47:37.893Z,98322.28
2022-11-17T12:50:23.010Z,98332.88
2022-11-17T12:53:26.515Z,98329.78
2022-11-17T12:56:20.876Z,98339.59
2022-11-17T12:58:57.642Z,98340.22
2022-11-17T13:01:32.505Z,98347.44
2022-11-17T13:04:04.635Z,98344.59
2022-11-17T13:06:36.623Z,98340.94
2022-11-17T13:09:07.214Z,98340.38
2022-11-17T13:11:35.648Z,98344.00
2022-11-17T13:14:11.394Z,98343.97
2022-11-17T13:16:45.937Z,98348.13
2022-11-17T13:19:41.299Z,98344.59
2022-11-17T13:22:15.696Z,98348.13
2022-11-17T13:24:45.128Z,98351.75
2022-11-17T13:27:21.489Z,98347.47
2022-11-17T13:29:49.740Z,98354.41
2022-11-17T13:32:21.301Z,98364.97
2022-11-17T13:34:51.551Z,98363.28
2022-11-17T13:37:21.116Z,98365.03
2022-11-17T13:39:56.381Z,98378.31
2022-11-17T13:42:26.031Z,98373.25
2022-11-17T13:44:54.801Z,98381.19
2022-11-17T13:47:29.397Z,98371.00
2022-11-17T13:49:57.059Z,98385.63
2022-11-17T13:52:40.544Z,98383.97
2022-11-17T13:55:17.299Z,98380.81
2022-11-17T13:57:54.890Z,98382.16
2022-11-17T14:00:23.316Z,98376.00
2022-11-17T14:02:56.075Z,98391.59
2022-11-17T14:05:25.982Z,98385.31
2022-11-17T14:07:54.557Z,98387.75
2022-11-17T14:10:33.526Z,98390.00
2022-11-17T14:13:21.968Z,98392.78
2022-11-17T14:15:55.843Z,98404.78
2022-11-17T14:18:34.083Z,98406.06
2022-11-17T14:21:10.346Z,98400.88
2022-11-17T14:23:38.189Z,98402.69
2022-11-17T14:26:06.102Z,98417.41
2022-11-17T14:28:33.861Z,98415.66
2022-11-17T14:31:01.564Z,98407.44
2022-11-17T14:33:29.251Z,98402.75
2022-11-17T14:36:00.362Z,98415.72
2022-11-17T14:38:28.226Z,98412.34
2022-11-17T14:40:56.064Z,98414.38
2022-11-17T14:43:24.034Z,98424.53
2022-11-17T14:45:51.848Z,98415.84
2022-11-17T14:48:20.327Z,98425.22
2022-11-17T14:50:48.233Z,98415.94
2022-11-17T14:53:17.342Z,98428.72
2022-11-17T14:55:45.006Z,98429.69
2022-11-17T14:58:12.713Z,98418.63
2022-11-17T15:00:40.431Z,98420.75
2022-11-17T15:03:08.310Z,98441.53
2022-11-17T15:05:36.390Z,98429.50
2022-11-17T15:08:04.914Z,98435.47
2022-11-17T15:10:34.362Z,98447.00
2022-11-17T15:13:02.060Z,98440.88
2022-11-17T15:15:29.801Z,98452.53
2022-11-17T15:17:57.632Z,98445.53
2022-11-17T15:20:25.322Z,98452.25
2022-11-17T15:22:53.019Z,98455.34
2022-11-17T15:25:20.720Z,98461.59
2022-11-17T15:27:49.806Z,98461.69
2022-11-17T15:30:18.386Z,98458.66
2022-11-17T15:32:46.067Z,98462.03
2022-11-17T15:35:13.795Z,98472.56
2022-11-17T15:37:41.525Z,98462.41
2022-11-17T15:40:12.112Z,98467.84
2022-11-17T15:42:43.169Z,98472.56
2022-11-17T15:45:12.447Z,98461.47
2022-11-17T15:47:40.085Z,98471.00
2022-11-17T15:50:09.138Z,98472.28
2022-11-17T15:53:02.297Z,98468.25
2022-11-17T15:55:24.568Z,98467.88
2022-11-17T15:57:54.206Z,98475.09
2022-11-17T16:00:23.402Z,98478.81
2022-11-17T16:02:54.445Z,98485.16
2022-11-17T16:05:26.114Z,98496.00
2022-11-17T16:07:53.794Z,98497.97
2022-11-17T16:10:21.555Z,98498.06
2022-11-17T16:12:49.660Z,98508.38
2022-11-17T16:15:17.899Z,98499.88
2022-11-17T16:17:46.971Z,98504.75
2022-11-17T16:20:15.485Z,98512.22
2022-11-17T16:22:43.217Z,98505.63
2022-11-17T16:25:11.149Z,98506.97
2022-11-17T16:27:40.043Z,98519.31
2022-11-17T16:30:08.830Z,98506.72
2022-11-17T16:32:36.552Z,98513.50
2022-11-17T16:35:06.350Z,98520.84
2022-11-17T16:37:35.202Z,98516.69
2022-11-17T16:40:04.554Z,98504.78
2022-11-17T16:42:32.763Z,98524.88
2022-11-17T16:45:00.621Z,98518.78
2022-11-17T16:47:28.533Z,98528.91
2022-11-17T16:49:56.209Z,98526.41
2022-11-17T16:52:25.201Z,98521.69
2022-11-17T16:54:52.991Z,98532.50
2022-11-17T16:57:20.641Z,98530.00
2022-11-17T16:59:48.430Z,98527.38
2022-11-17T17:02:16.195Z,98540.56
2022-11-17T17:04:43.913Z,98535.00
2022-11-17T17:07:11.730Z,98536.97
2022-11-17T17:09:40.845Z,98535.84
2022-11-17T17:12:08.646Z,98545.81
2022-11-17T17:14:36.363Z,98547.91
2022-11-17T17:17:04.077Z,98546.94
2022-11-17T17:19:31.749Z,98555.72
2022-11-17T17:21:59.394Z,98551.09
2022-11-17T17:24:27.177Z,98542.38
2022-11-17T17:26:56.297Z,98549.59
2022-11-17T17:29:24.024Z,98559.28
2022-11-17T17:31:51.794Z,98562.25
2022-11-17T17:34:19.458Z,98559.16
2022-11-17T17:36:47.166Z,98573.16
2022-11-17T17:39:16.287Z,98568.44
2022-11-17T17:41:45.731Z,98563.31
2022-11-17T17:44:17.349Z,98580.25
2022-11-17T17:46:45.586Z,98586.88
2022-11-17T17:49:13.879Z,98584.13
2022-11-17T17:51:44.028Z,98581.22
2022-11-17T17:54:15.533Z,98583.16
2022-11-17T17:56:43.239Z,98590.66
2022-11-17T17:59:10.937Z,98601.19
2022-11-17T18:01:40.785Z,98600.50
2022-11-17T18:04:15.289Z,98601.88
2022-11-17T18:06:46.130Z,98599.09
2022-11-17T18:09:15.594Z,98604.66
2022-11-17T18:11:47.742Z,98613.81
2022-11-17T18:14:15.478Z,98599.03
2022-11-17T18:16:44.646Z,98611.28
2022-11-17T18:19:15.271Z,98614.34
2022-11-17T18:21:43.602Z,98613.81
2022-11-17T18:24:11.761Z,98625.47
2022-11-17T18:26:40.947Z,98621.16
2022-11-17T18:29:10.302Z,98621.16
2022-11-17T18:31:38.169Z,98619.91
2022-11-17T18:34:09.024Z,98619.06
2022-11-17T18:36:37.077Z,98621.00
2022-11-17T18:39:04.908Z,98625.44
2022-11-17T18:41:33.993Z,98628.34
2022-11-17T18:44:02.047Z,98625.00
2022-11-17T18:46:31.357Z,98628.47
2022-11-17T18:48:59.844Z,98625.56
2022-11-17T18:51:30.814Z,98637.34
2022-11-17T18:53:59.894Z,98631.19
2022-11-17T18:56:28.886Z,98634.81
2022-11-17T18:58:56.574Z,98630.38
2022-11-17T19:01:25.446Z,98627.69
2022-11-17T19:03:54.510Z,98638.03
2022-11-17T19:06:24.788Z,98646.22
2022-11-17T19:08:54.206Z,98646.09
2022-11-17T19:11:23.160Z,98647.06
2022-11-17T19:13:51.321Z,98650.41
2022-11-17T19:16:20.986Z,98646.78
2022-11-17T19:18:49.998Z,98658.56
2022-11-17T19:21:19.131Z,98662.66
2022-11-17T19:23:51.726Z,98661.91
2022-11-17T19:26:23.259Z,98668.25
2022-11-17T19:28:51.457Z,98656.31
2022-11-17T19:31:20.231Z,98678.59
2022-11-17T19:33:49.291Z,98670.44
2022-11-17T19:36:18.884Z,98679.97
2022-11-17T19:38:48.954Z,98700.38
2022-11-17T19:41:18.890Z,98680.81
2022-11-17T19:43:48.155Z,98691.34
2022-11-17T19:46:17.327Z,98692.97
2022-11-17T19:48:45.376Z,98698.69
2022-11-17T19:51:15.546Z,98702.25
2022-11-17T19:53:43.376Z,98709.22
2022-11-17T19:56:11.522Z,98712.81
2022-11-17T19:58:40.947Z,98703.53
2022-11-17T20:01:11.583Z,98699.31
2022-11-17T20:03:39.688Z,98717.53
2022-11-17T20:06:08.146Z,98726.16
2022-11-17T20:08:35.873Z,98719.53
2022-11-17T20:11:05.242Z,98724.75
2022-11-17T20:13:33.313Z,98732.66
2022-11-17T20:16:02.859Z,98730.34
2022-11-17T20:18:33.477Z,98735.09
2022-11-17T20:21:04.831Z,98736.13
2022-11-17T20:23:33.608Z,98741.53
2022-11-17T20:26:04.199Z,98743.66
2022-11-17T20:49:13.168Z,98772.00
2022-11-17T20:51:40.905Z,98770.84
2022-11-17T20:54:09.585Z,98783.28
2022-11-17T20:56:37.249Z,98790.44
2022-11-17T20:59:04.901Z,98783.19
2022-11-17T21:01:32.624Z,98786.69
2022-11-17T21:04:00.548Z,98786.84
2022-11-17T21:06:29.621Z,98779.38
2022-11-17T21:08:57.428Z,98781.06
2022-11-17T21:11:51.493Z,98798.16
2022-11-17T21:14:19.271Z,98797.88
2022-11-17T21:16:46.982Z,98794.88
2022-11-17T21:19:15.409Z,98805.78
2022-11-17T21:21:45.031Z,98800.66
2022-11-17T21:24:13.095Z,98811.00
2022-11-17T21:26:40.839Z,98812.47
2022-11-17T21:41:50.087Z,98811.19
2022-11-17T21:44:17.997Z,98838.69
2022-11-17T21:46:45.685Z,98841.88
2022-11-17T21:49:13.672Z,98839.88
2022-11-17T21:51:41.574Z,98851.84
2022-11-17T21:54:10.734Z,98840.09
2022-11-17T21:56:38.656Z,98841.13
2022-11-17T21:59:11.396Z,98842.28
2022-11-17T22:01:39.391Z,98842.78
2022-11-17T22:04:07.142Z,98836.09
2022-11-17T22:06:35.034Z,98849.47
2022-11-17T22:09:02.796Z,98851.19
2022-11-17T22:11:38.783Z,98852.75
2022-11-17T22:14:11.792Z,98850.03
2022-11-17T22:16:41.362Z,98844.06
2022-11-17T22:19:09.842Z,98855.28
2022-11-17T22:21:38.275Z,98849.81
2022-11-17T22:24:07.268Z,98849.44
2022-11-17T22:26:35.901Z,98857.22
2022-11-17T22:29:03.741Z,98861.09
2022-11-17T22:31:33.179Z,98865.28
2022-11-17T22:34:00.882Z,98863.34
2022-11-17T22:36:28.569Z,98863.28
2022-11-17T22:38:56.298Z,98879.50
2022-11-17T22:41:24.233Z,98875.22
2022-11-17T22:43:52.228Z,98879.03
2022-11-17T22:46:20.700Z,98882.38
2022-11-17T22:48:50.255Z,98884.91
2022-11-17T22:51:38.495Z,98886.06
2022-11-17T22:54:06.583Z,98883.59
2022-11-17T22:56:34.518Z,98883.59
2022-11-17T22:59:02.318Z,98887.44
2022-11-17T23:01:30.220Z,98896.41
2022-11-17T23:03:59.447Z,98896.16
2022-11-17T23:06:28.469Z,98891.47
2022-11-17T23:08:57.381Z,98888.88
2022-11-17T23:11:41.075Z,98898.19
2022-11-17T23:14:11.070Z,98903.81
2022-11-17T23:16:38.881Z,98909.66
2022-11-17T23:19:09.514Z,98919.72
2022-11-17T23:21:37.335Z,98917.31
2022-11-17T23:24:05.562Z,98922.81
2022-11-17T23:26:33.463Z,98933.94
2022-11-17T23:29:01.168Z,98931.91
2022-11-17T23:31:28.893Z,98938.59
2022-11-17T23:33:56.590Z,98938.00
2022-11-17T23:36:25.790Z,98940.41
2022-11-17T23:38:56.347Z,98933.78
2022-11-17T23:41:24.328Z,98944.91
2022-11-17T23:43:53.026Z,98960.59
2022-11-17T23:46:22.052Z,98967.41
2022-11-17T23:48:49.946Z,98969.44
2022-11-17T23:51:19.002Z,98972.44
2022-11-17T23:53:49.425Z,98967.53
2022-11-17T23:56:17.857Z,98971.72
2022-11-17T23:58:45.602Z,98973.50
